Time,TemperatureF,DewpointF,PressureIn,WindDirection,WindDirectionDegrees,WindSpeedMPH,WindSpeedGustMPH,Humidity,HourlyPrecipIn,Conditions,Clouds,dailyrainin,SoftwareType,DateUTC
2013-06-19 00:03:00,61.0,55.8,29.85,SSW,202,0.0,0.0,83,0.00,,,0.00,VWS V14.01,2013-06-18 23:03:00,
2013-06-19 00:08:00,61.0,55.8,29.85,SSW,202,0.0,0.0,83,0.00,,,0.00,VWS V14.01,2013-06-18 23:08:00,
2013-06-19 00:13:00,60.8,55.9,29.85,SSW,202,1.3,1.3,84,0.00,,,0.00,VWS V14.01,2013-06-18 23:13:00,
2013-06-19 00:18:00,60.8,55.9,29.85,SSW,202,1.3,2.0,84,0.00,,,0.00,VWS V14.01,2013-06-18 23:18:00,
2013-06-19 00:23:00,60.6,55.8,29.85,SW,225,1.6,2.7,84,0.00,,,0.00,VWS V14.01,2013-06-18 23:23:00,
2013-06-19 00:28:00,60.8,56.3,29.85,SSW,202,2.0,2.2,85,0.00,,,0.00,VWS V14.01,2013-06-18 23:28:00,
2013-06-19 00:33:00,61.0,56.5,29.85,WSW,248,0.0,1.3,85,0.00,,,0.00,VWS V14.01,2013-06-18 23:33:00,
2013-06-19 00:38:00,61.0,56.5,29.85,SSW,202,2.7,2.7,85,0.00,,,0.00,VWS V14.01,2013-06-18 23:38:00,
2013-06-19 00:43:00,61.0,56.5,29.85,SSE,158,1.6,2.7,85,0.00,,,0.00,VWS V14.01,2013-06-18 23:43:00,
2013-06-19 00:48:00,61.0,56.5,29.85,WSW,248,2.0,2.9,85,0.00,,,0.00,VWS V14.01,2013-06-18 23:48:00,
2013-06-19 00:54:00,61.0,56.5,29.85,WSW,248,2.0,2.0,85,0.00,,,0.00,VWS V14.01,2013-06-18 23:54:00,
2013-06-19 00:59:00,61.9,57.7,29.85,SW,225,2.2,2.5,86,0.00,,,0.00,VWS V14.01,2013-06-18 23:59:00,
2013-06-19 01:04:00,61.9,57.7,29.85,SSW,202,2.9,4.3,86,0.00,,,0.00,VWS V14.01,2013-06-19 00:04:00,
2013-06-19 01:09:00,61.9,57.7,29.85,SSW,202,1.1,2.5,86,0.00,,,0.00,VWS V14.01,2013-06-19 00:09:00,
2013-06-19 01:14:00,61.9,57.7,29.85,SSW,202,1.1,2.2,86,0.00,,,0.00,VWS V14.01,2013-06-19 00:14:00,
2013-06-19 01:19:00,61.9,57.7,29.85,SSW,202,1.6,2.5,86,0.00,,,0.00,VWS V14.01,2013-06-19 00:19:00,
2013-06-19 01:24:00,61.9,57.7,29.85,SW,225,2.7,2.9,86,0.00,,,0.00,VWS V14.01,2013-06-19 00:24:00,
2013-06-19 01:29:00,61.9,57.7,29.85,WSW,248,1.6,2.2,86,0.00,,,0.00,VWS V14.01,2013-06-19 00:29:00,
2013-06-19 01:34:00,62.2,58.0,29.85,WSW,248,2.5,3.1,86,0.00,,,0.00,VWS V14.01,2013-06-19 00:34:00,
2013-06-19 01:39:00,62.1,57.5,29.82,SW,225,2.0,2.5,85,0.00,,,0.00,VWS V14.01,2013-06-19 00:39:00,
2013-06-19 01:44:00,62.1,57.5,29.82,South,180,2.5,2.5,85,0.00,,,0.00,VWS V14.01,2013-06-19 00:44:00,
2013-06-19 01:49:00,62.1,57.5,29.82,SSE,158,1.1,1.6,85,0.00,,,0.00,VWS V14.01,2013-06-19 00:49:00,
2013-06-19 01:54:00,62.1,57.5,29.82,South,180,1.6,2.2,85,0.00,,,0.00,VWS V14.01,2013-06-19 00:54:00,
2013-06-19 01:59:00,62.1,57.5,29.82,South,180,0.0,0.0,85,0.00,,,0.00,VWS V14.01,2013-06-19 00:59:00,
2013-06-19 02:04:00,62.1,57.5,29.82,South,180,0.0,0.0,85,0.00,,,0.00,VWS V14.01,2013-06-19 01:04:00,
2013-06-19 02:09:00,62.1,57.5,29.82,NW,315,1.6,2.0,85,0.00,,,0.00,VWS V14.01,2013-06-19 01:09:00,
2013-06-19 02:14:00,62.1,57.5,29.82,WNW,292,1.3,1.6,85,0.00,,,0.00,VWS V14.01,2013-06-19 01:14:00,
2013-06-19 02:19:00,61.9,57.7,29.82,WNW,292,2.5,2.9,86,0.00,,,0.00,VWS V14.01,2013-06-19 01:19:00,
2013-06-19 02:24:00,61.9,57.7,29.82,West,270,2.9,2.9,86,0.00,,,0.00,VWS V14.01,2013-06-19 01:24:00,
2013-06-19 02:29:00,61.9,57.7,29.82,WNW,292,1.1,1.3,86,0.00,,,0.00,VWS V14.01,2013-06-19 01:29:00,
2013-06-19 02:34:00,61.9,57.7,29.82,WSW,248,2.7,2.7,86,0.00,,,0.00,VWS V14.01,2013-06-19 01:34:00,
2013-06-19 02:39:00,61.9,57.3,29.82,WSW,248,2.2,2.2,85,0.00,,,0.00,VWS V14.01,2013-06-19 01:39:00,
2013-06-19 02:44:00,61.9,57.3,29.82,SW,225,0.0,0.0,85,0.00,,,0.00,VWS V14.01,2013-06-19 01:44:00,
2013-06-19 02:49:00,61.5,57.0,29.82,West,270,0.0,0.0,85,0.00,,,0.00,VWS V14.01,2013-06-19 01:49:00,
2013-06-19 02:54:00,61.3,57.1,29.82,WSW,248,0.0,0.0,86,0.00,,,0.00,VWS V14.01,2013-06-19 01:54:00,
2013-06-19 02:59:00,61.3,57.1,29.82,WSW,248,2.0,2.0,86,0.00,,,0.00,VWS V14.01,2013-06-19 01:59:00,
2013-06-19 03:04:00,61.3,57.1,29.82,West,270,2.0,2.2,86,0.00,,,0.00,VWS V14.01,2013-06-19 02:04:00,
2013-06-19 03:09:00,61.3,57.1,29.85,WSW,248,0.0,0.0,86,0.00,,,0.00,VWS V14.01,2013-06-19 02:09:00,
2013-06-19 03:14:00,61.3,57.1,29.85,WSW,248,1.3,1.3,86,0.00,,,0.00,VWS V14.01,2013-06-19 02:14:00,
2013-06-19 03:19:00,61.3,57.1,29.85,West,270,2.7,2.7,86,0.00,,,0.00,VWS V14.01,2013-06-19 02:19:00,
2013-06-19 03:24:00,61.5,57.6,29.82,WSW,248,2.9,2.9,87,0.00,,,0.00,VWS V14.01,2013-06-19 02:24:00,
2013-06-19 03:29:00,61.5,57.6,29.82,WSW,248,2.7,2.7,87,0.00,,,0.00,VWS V14.01,2013-06-19 02:29:00,
2013-06-19 03:34:00,61.5,57.6,29.82,West,270,1.6,2.0,87,0.00,,,0.00,VWS V14.01,2013-06-19 02:34:00,
2013-06-19 03:39:00,61.7,57.8,29.85,WNW,292,3.1,3.4,87,0.00,,,0.00,VWS V14.01,2013-06-19 02:39:00,
2013-06-19 03:44:00,61.5,57.6,29.85,WSW,248,4.0,4.0,87,0.00,,,0.00,VWS V14.01,2013-06-19 02:44:00,
2013-06-19 03:49:00,61.3,57.4,29.85,WSW,248,3.6,4.0,87,0.00,,,0.00,VWS V14.01,2013-06-19 02:49:00,
2013-06-19 03:54:00,61.3,57.4,29.85,WSW,248,4.3,4.3,87,0.00,,,0.00,VWS V14.01,2013-06-19 02:54:00,
2013-06-19 03:59:00,61.2,57.3,29.85,SSW,202,2.7,2.7,87,0.00,,,0.00,VWS V14.01,2013-06-19 02:59:00,
2013-06-19 04:04:00,61.2,57.3,29.85,SSW,202,0.0,0.0,87,0.00,,,0.00,VWS V14.01,2013-06-19 03:04:00,
2013-06-19 04:09:00,61.2,57.3,29.85,WSW,248,2.7,3.1,87,0.00,,,0.00,VWS V14.01,2013-06-19 03:09:00,
2013-06-19 04:14:00,61.2,57.3,29.85,WSW,248,2.5,2.9,87,0.00,,,0.00,VWS V14.01,2013-06-19 03:14:00,
2013-06-19 04:19:00,61.2,57.3,29.85,SSW,202,0.0,2.0,87,0.00,,,0.00,VWS V14.01,2013-06-19 03:19:00,
2013-06-19 04:24:00,61.2,57.3,29.85,SW,225,1.3,1.3,87,0.00,,,0.00,VWS V14.01,2013-06-19 03:24:00,
2013-06-19 04:29:00,61.2,57.3,29.85,WSW,248,0.0,0.0,87,0.00,,,0.00,VWS V14.01,2013-06-19 03:29:00,
2013-06-19 04:34:00,61.2,57.3,29.85,SE,135,1.3,1.6,87,0.00,,,0.00,VWS V14.01,2013-06-19 03:34:00,
2013-06-19 04:39:00,60.8,56.9,29.82,SE,135,0.0,0.0,87,0.00,,,0.00,VWS V14.01,2013-06-19 03:39:00,
2013-06-19 04:45:00,60.8,56.9,29.82,South,180,1.3,2.2,87,0.00,,,0.00,VWS V14.01,2013-06-19 03:45:00,
2013-06-19 04:50:00,60.8,56.9,29.82,South,180,0.0,0.0,87,0.00,,,0.00,VWS V14.01,2013-06-19 03:50:00,
2013-06-19 04:55:00,60.8,56.9,29.82,South,180,2.9,2.9,87,0.00,,,0.00,VWS V14.01,2013-06-19 03:55:00,
2013-06-19 05:00:00,60.6,57.0,29.82,South,180,5.4,5.4,88,0.00,,,0.00,VWS V14.01,2013-06-19 04:00:00,
2013-06-19 05:01:00,60.6,57.0,29.82,SSW,202,2.9,5.4,88,0.00,,,0.00,VWS V14.01,2013-06-19 04:01:00,
2013-06-19 05:03:00,60.6,57.0,29.82,WSW,248,2.5,4.3,88,0.00,,,0.00,VWS V14.01,2013-06-19 04:03:00,
2013-06-19 05:08:00,60.6,57.0,29.85,SSW,202,0.0,0.0,88,0.00,,,0.00,VWS V14.01,2013-06-19 04:08:00,
2013-06-19 05:13:00,60.6,57.0,29.85,WSW,248,2.5,2.9,88,0.00,,,0.00,VWS V14.01,2013-06-19 04:13:00,
2013-06-19 05:18:00,60.6,57.0,29.85,WSW,248,3.1,3.1,88,0.00,,,0.00,VWS V14.01,2013-06-19 04:18:00,
2013-06-19 05:23:00,60.8,57.2,29.85,West,270,3.1,3.4,88,0.00,,,0.00,VWS V14.01,2013-06-19 04:23:00,
2013-06-19 05:28:00,60.8,57.2,29.85,SW,225,2.7,4.0,88,0.00,,,0.00,VWS V14.01,2013-06-19 04:28:00,
2013-06-19 05:33:00,60.8,57.2,29.85,West,270,1.3,2.7,88,0.00,,,0.00,VWS V14.01,2013-06-19 04:33:00,
2013-06-19 05:38:00,60.8,56.9,29.85,WSW,248,2.5,2.5,87,0.00,,,0.00,VWS V14.01,2013-06-19 04:38:00,
2013-06-19 05:43:00,61.0,57.1,29.85,WSW,248,1.6,2.5,87,0.00,,,0.00,VWS V14.01,2013-06-19 04:43:00,
2013-06-19 05:48:00,61.0,57.1,29.85,WSW,248,0.0,0.0,87,0.00,,,0.00,VWS V14.01,2013-06-19 04:48:00,
2013-06-19 05:53:00,61.2,57.3,29.82,WSW,248,2.2,2.7,87,0.00,,,0.00,VWS V14.01,2013-06-19 04:53:00,
2013-06-19 05:58:00,61.2,57.3,29.82,SSW,202,3.1,3.1,87,0.00,,,0.00,VWS V14.01,2013-06-19 04:58:00,
2013-06-19 06:03:00,61.0,57.1,29.82,WSW,248,3.8,4.0,87,0.00,,,0.00,VWS V14.01,2013-06-19 05:03:00,
2013-06-19 06:08:00,61.0,57.1,29.88,SW,225,3.8,3.8,87,0.00,,,0.00,VWS V14.01,2013-06-19 05:08:00,
2013-06-19 06:13:00,61.0,57.1,29.88,SW,225,2.5,3.6,87,0.00,,,0.00,VWS V14.01,2013-06-19 05:13:00,
2013-06-19 06:18:00,61.0,57.1,29.88,SSW,202,3.4,5.4,87,0.00,,,0.00,VWS V14.01,2013-06-19 05:18:00,
2013-06-19 06:23:00,61.0,57.4,29.85,SSW,202,4.9,5.8,88,0.00,,,0.00,VWS V14.01,2013-06-19 05:23:00,
2013-06-19 06:28:00,61.0,57.4,29.85,SSW,202,3.8,3.8,88,0.00,,,0.00,VWS V14.01,2013-06-19 05:28:00,
2013-06-19 06:33:00,61.0,57.7,29.85,West,270,3.1,4.0,89,0.00,,,0.00,VWS V14.01,2013-06-19 05:33:00,
2013-06-19 06:38:00,61.0,57.7,29.85,NNE,22,0.0,0.9,89,0.00,,,0.00,VWS V14.01,2013-06-19 05:38:00,
2013-06-19 06:43:00,61.0,57.7,29.85,NNE,22,0.0,0.0,89,0.00,,,0.00,VWS V14.01,2013-06-19 05:43:00,
2013-06-19 06:48:00,61.0,58.0,29.85,North,0,2.7,2.7,90,0.00,,,0.00,VWS V14.01,2013-06-19 05:48:00,
2013-06-19 06:53:00,61.2,58.2,29.82,North,0,2.0,2.5,90,0.00,,,0.00,VWS V14.01,2013-06-19 05:53:00,
2013-06-19 06:59:00,61.3,58.4,29.82,NW,315,3.1,3.4,90,0.00,,,0.00,VWS V14.01,2013-06-19 05:59:00,
2013-06-19 07:04:00,61.5,58.6,29.82,WNW,292,2.0,2.5,90,0.00,,,0.00,VWS V14.01,2013-06-19 06:04:00,
2013-06-19 07:09:00,61.7,58.7,29.82,West,270,1.1,1.6,90,0.00,,,0.00,VWS V14.01,2013-06-19 06:09:00,
2013-06-19 07:14:00,61.7,58.7,29.82,WNW,292,2.2,3.8,90,0.00,,,0.00,VWS V14.01,2013-06-19 06:14:00,
2013-06-19 07:19:00,61.7,58.7,29.82,North,0,0.0,3.6,90,0.00,,,0.00,VWS V14.01,2013-06-19 06:19:00,
2013-06-19 07:24:00,62.1,59.1,29.85,West,270,2.7,2.7,90,0.00,,,0.00,VWS V14.01,2013-06-19 06:24:00,
2013-06-19 07:29:00,62.2,59.3,29.85,SSW,202,0.9,1.1,90,0.00,,,0.00,VWS V14.01,2013-06-19 06:29:00,
2013-06-19 07:34:00,62.8,59.5,29.85,NW,315,0.0,0.0,89,0.00,,,0.00,VWS V14.01,2013-06-19 06:34:00,
2013-06-19 07:39:00,63.0,59.7,29.85,South,180,0.0,0.0,89,0.00,,,0.00,VWS V14.01,2013-06-19 06:39:00,
2013-06-19 07:44:00,63.1,59.8,29.85,WSW,248,2.5,2.5,89,0.00,,,0.00,VWS V14.01,2013-06-19 06:44:00,
2013-06-19 07:49:00,63.5,60.2,29.85,WSW,248,2.0,2.7,89,0.00,,,0.00,VWS V14.01,2013-06-19 06:49:00,
2013-06-19 07:54:00,63.7,60.4,29.85,South,180,1.6,2.0,89,0.00,,,0.00,VWS V14.01,2013-06-19 06:54:00,
2013-06-19 07:59:00,64.2,60.9,29.85,WNW,292,0.0,0.0,89,0.00,,,0.00,VWS V14.01,2013-06-19 06:59:00,
2013-06-19 08:04:00,64.4,60.8,29.85,SE,135,2.5,2.5,88,0.00,,,0.00,VWS V14.01,2013-06-19 07:04:00,
2013-06-19 08:09:00,64.9,61.3,29.85,SSW,202,2.0,2.2,88,0.00,,,0.00,VWS V14.01,2013-06-19 07:09:00,
2013-06-19 08:14:00,65.5,61.5,29.85,NW,315,1.6,2.2,87,0.00,,,0.00,VWS V14.01,2013-06-19 07:14:00,
2013-06-19 08:19:00,65.8,61.9,29.85,WSW,248,2.0,2.7,87,0.00,,,0.00,VWS V14.01,2013-06-19 07:19:00,
2013-06-19 08:24:00,66.0,61.7,29.85,WNW,292,1.6,2.0,86,0.00,,,0.00,VWS V14.01,2013-06-19 07:24:00,
2013-06-19 08:29:00,66.0,61.7,29.85,North,0,0.0,0.0,86,0.00,,,0.00,VWS V14.01,2013-06-19 07:29:00,
2013-06-19 08:34:00,66.4,61.1,29.85,NW,315,2.7,3.1,83,0.00,,,0.00,VWS V14.01,2013-06-19 07:34:00,
2013-06-19 08:39:00,66.6,61.6,29.85,NNE,22,2.7,2.7,84,0.00,,,0.00,VWS V14.01,2013-06-19 07:39:00,
2013-06-19 08:44:00,66.7,61.4,29.85,NW,315,3.1,3.8,83,0.00,,,0.00,VWS V14.01,2013-06-19 07:44:00,
2013-06-19 08:49:00,66.7,61.1,29.85,NNW,338,3.1,4.0,82,0.00,,,0.00,VWS V14.01,2013-06-19 07:49:00,
2013-06-19 08:54:00,66.9,61.2,29.85,NNE,22,2.9,3.4,82,0.00,,,0.00,VWS V14.01,2013-06-19 07:54:00,
2013-06-19 08:59:00,67.1,61.4,29.85,NNW,338,2.9,3.1,82,0.00,,,0.00,VWS V14.01,2013-06-19 07:59:00,
2013-06-19 09:04:00,67.6,62.0,29.85,ENE,68,3.6,3.6,82,0.00,,,0.00,VWS V14.01,2013-06-19 08:04:00,
2013-06-19 09:09:00,68.0,62.0,29.85,East,90,3.6,3.6,81,0.00,,,0.00,VWS V14.01,2013-06-19 08:09:00,
2013-06-19 09:14:00,68.2,61.8,29.85,ENE,68,4.3,4.3,80,0.00,,,0.00,VWS V14.01,2013-06-19 08:14:00,
2013-06-19 09:19:00,68.5,62.1,29.85,NE,45,3.4,4.3,80,0.00,,,0.00,VWS V14.01,2013-06-19 08:19:00,
2013-06-19 09:24:00,68.9,62.1,29.82,East,90,3.6,5.8,79,0.00,,,0.00,VWS V14.01,2013-06-19 08:24:00,
2013-06-19 09:29:00,69.4,62.7,29.82,NNE,22,4.0,5.8,79,0.00,,,0.00,VWS V14.01,2013-06-19 08:29:00,
2013-06-19 09:34:00,69.8,61.9,29.82,ENE,68,3.1,5.6,76,0.00,,,0.00,VWS V14.01,2013-06-19 08:34:00,
2013-06-19 09:39:00,70.0,62.1,29.85,East,90,2.2,3.8,76,0.00,,,0.00,VWS V14.01,2013-06-19 08:39:00,
2013-06-19 09:44:00,70.2,62.2,29.85,SE,135,4.0,4.9,76,0.00,,,0.00,VWS V14.01,2013-06-19 08:44:00,
2013-06-19 09:49:00,70.5,62.2,29.85,ESE,112,3.4,5.4,75,0.00,,,0.00,VWS V14.01,2013-06-19 08:49:00,
2013-06-19 09:54:00,70.5,62.2,29.82,ENE,68,2.5,2.7,75,0.00,,,0.00,VWS V14.01,2013-06-19 08:54:00,
2013-06-19 09:59:00,70.5,61.8,29.82,SE,135,3.1,3.4,74,0.00,,,0.00,VWS V14.01,2013-06-19 08:59:00,
2013-06-19 10:04:00,70.2,61.1,29.82,ESE,112,6.0,6.0,73,0.00,,FEW013,0.00,VWS V14.01,2013-06-19 09:04:00,
2013-06-19 10:09:00,70.2,61.1,29.85,SE,135,2.0,4.3,73,0.00,,FEW013,0.00,VWS V14.01,2013-06-19 09:09:00,
2013-06-19 10:14:00,70.2,60.7,29.85,ESE,112,5.4,6.5,72,0.00,,FEW013,0.00,VWS V14.01,2013-06-19 09:14:00,
2013-06-19 10:19:00,70.3,61.3,29.85,East,90,4.5,4.5,73,0.00,,FEW013,0.00,VWS V14.01,2013-06-19 09:19:00,
2013-06-19 10:24:00,70.5,61.5,29.85,ESE,112,2.5,2.9,73,0.00,,FEW013,0.00,VWS V14.01,2013-06-19 09:24:00,
2013-06-19 10:29:00,70.9,61.8,29.85,NE,45,1.6,2.5,73,0.00,,FEW013,0.00,VWS V14.01,2013-06-19 09:29:00,
2013-06-19 10:34:00,71.6,62.5,29.85,East,90,4.0,4.0,73,0.00,,FEW013,0.00,VWS V14.01,2013-06-19 09:34:00,
2013-06-19 10:40:00,72.1,61.8,29.85,ENE,68,5.4,6.0,70,0.00,,FEW013,0.00,VWS V14.01,2013-06-19 09:40:00,
2013-06-19 10:45:00,72.3,62.0,29.85,ESE,112,5.6,5.6,70,0.00,,FEW013,0.00,VWS V14.01,2013-06-19 09:45:00,
2013-06-19 10:50:00,72.3,61.6,29.85,ESE,112,4.9,4.9,69,0.00,,FEW013,0.00,VWS V14.01,2013-06-19 09:50:00,
2013-06-19 10:55:00,72.5,62.2,29.85,East,90,4.0,4.0,70,0.00,,FEW013,0.00,VWS V14.01,2013-06-19 09:55:00,
2013-06-19 11:00:00,72.5,61.8,29.85,NNE,22,3.4,5.6,69,0.00,,FEW013,0.00,VWS V14.01,2013-06-19 10:00:00,
2013-06-19 11:05:00,72.5,61.3,29.85,ENE,68,1.3,2.2,68,0.00,,FEW019,0.00,VWS V14.01,2013-06-19 10:05:00,
2013-06-19 11:10:00,72.5,61.3,29.82,ESE,112,2.0,2.0,68,0.00,,FEW019,0.00,VWS V14.01,2013-06-19 10:10:00,
2013-06-19 11:15:00,72.9,62.1,29.82,East,90,5.8,5.8,69,0.00,,FEW019,0.00,VWS V14.01,2013-06-19 10:15:00,
2013-06-19 11:20:00,72.9,62.1,29.82,SE,135,5.4,7.6,69,0.00,,FEW019,0.00,VWS V14.01,2013-06-19 10:20:00,
2013-06-19 11:25:00,73.8,61.7,29.82,ESE,112,2.9,2.9,66,0.00,,FEW019,0.00,VWS V14.01,2013-06-19 10:25:00,
2013-06-19 11:30:00,74.1,61.6,29.82,ENE,68,7.4,7.4,65,0.00,,FEW019,0.00,VWS V14.01,2013-06-19 10:30:00,
2013-06-19 11:35:00,74.3,60.9,29.82,NNW,338,1.6,1.6,63,0.00,,FEW019,0.00,VWS V14.01,2013-06-19 10:35:00,
2013-06-19 11:40:00,74.7,60.8,29.82,East,90,4.0,4.0,62,0.00,,FEW019,0.00,VWS V14.01,2013-06-19 10:40:00,
2013-06-19 11:45:00,74.5,58.3,29.82,NE,45,0.0,0.0,57,0.00,,FEW019,0.00,VWS V14.01,2013-06-19 10:45:00,
2013-06-19 11:50:00,75.0,60.2,29.82,East,90,2.5,4.3,60,0.00,,FEW019,0.00,VWS V14.01,2013-06-19 10:50:00,
2013-06-19 11:55:00,75.2,60.4,29.82,North,0,2.9,2.9,60,0.00,,FEW019,0.00,VWS V14.01,2013-06-19 10:55:00,
2013-06-19 12:00:00,75.7,60.4,29.82,North,0,3.1,3.1,59,0.00,,FEW024,0.00,VWS V14.01,2013-06-19 11:00:00,
2013-06-19 12:05:00,76.3,60.9,29.82,NNE,22,1.6,2.0,59,0.00,,FEW024,0.00,VWS V14.01,2013-06-19 11:05:00,
2013-06-19 12:10:00,76.8,61.4,29.88,SSE,158,3.6,4.3,59,0.00,,FEW024,0.00,VWS V14.01,2013-06-19 11:10:00,
2013-06-19 12:15:00,77.5,61.1,29.88,North,0,1.6,2.2,57,0.00,,FEW024,0.00,VWS V14.01,2013-06-19 11:15:00,
2013-06-19 12:20:00,77.7,60.3,29.88,NW,315,2.2,2.2,55,0.00,,FEW024,0.00,VWS V14.01,2013-06-19 11:20:00,
2013-06-19 12:25:00,77.9,61.5,29.88,North,0,4.0,4.0,57,0.00,,FEW024,0.00,VWS V14.01,2013-06-19 11:25:00,
2013-06-19 12:30:00,77.9,61.0,29.88,NNE,22,3.4,4.9,56,0.00,,FEW024,0.00,VWS V14.01,2013-06-19 11:30:00,
2013-06-19 12:35:00,78.3,59.7,29.88,East,90,6.0,6.3,53,0.00,,FEW024,0.00,VWS V14.01,2013-06-19 11:35:00,
2013-06-19 12:40:00,78.1,60.6,29.88,NE,45,4.3,5.4,55,0.00,,FEW024,0.00,VWS V14.01,2013-06-19 11:40:00,
2013-06-19 12:45:00,78.1,60.1,29.88,NW,315,2.0,2.0,54,0.00,,FEW024,0.00,VWS V14.01,2013-06-19 11:45:00,
2013-06-19 12:50:00,78.6,60.6,29.88,NE,45,6.0,6.0,54,0.00,,FEW024,0.00,VWS V14.01,2013-06-19 11:50:00,
2013-06-19 12:55:00,79.0,60.4,29.85,SE,135,2.5,2.5,53,0.00,,FEW024,0.00,VWS V14.01,2013-06-19 11:55:00,
2013-06-19 13:00:00,79.0,59.9,29.85,SE,135,2.5,3.6,52,0.00,,FEW030,0.00,VWS V14.01,2013-06-19 12:00:00,
2013-06-19 13:05:00,78.8,58.6,29.85,East,90,3.4,4.0,50,0.00,,FEW030,0.00,VWS V14.01,2013-06-19 12:05:00,
2013-06-19 13:10:00,78.8,58.6,29.85,NNE,22,3.1,5.4,50,0.00,,FEW030,0.00,VWS V14.01,2013-06-19 12:10:00,
2013-06-19 13:15:00,79.0,58.8,29.85,SE,135,3.4,4.9,50,0.00,,FEW030,0.00,VWS V14.01,2013-06-19 12:15:00,
2013-06-19 13:20:00,79.2,59.5,29.85,NE,45,3.4,3.4,51,0.00,,FEW030,0.00,VWS V14.01,2013-06-19 12:20:00,
2013-06-19 13:25:00,79.0,58.8,29.85,NW,315,3.4,6.3,50,0.00,,FEW030,0.00,VWS V14.01,2013-06-19 12:25:00,
2013-06-19 13:30:00,79.0,57.6,29.85,NW,315,4.3,6.3,48,0.00,,FEW030,0.00,VWS V14.01,2013-06-19 12:30:00,
2013-06-19 13:35:00,78.8,58.0,29.85,WSW,248,3.1,3.1,49,0.00,,FEW030,0.00,VWS V14.01,2013-06-19 12:35:00,
2013-06-19 13:40:00,78.6,56.7,29.85,NW,315,6.5,6.5,47,0.00,,FEW030,0.00,VWS V14.01,2013-06-19 12:40:00,
2013-06-19 13:46:00,78.6,56.1,29.85,WNW,292,1.6,4.7,46,0.00,,FEW030,0.00,VWS V14.01,2013-06-19 12:46:00,
2013-06-19 13:51:00,78.6,56.7,29.85,WSW,248,4.0,5.4,47,0.00,,FEW030,0.00,VWS V14.01,2013-06-19 12:51:00,
2013-06-19 13:56:00,78.6,56.7,29.85,West,270,2.5,2.7,47,0.00,,FEW030,0.00,VWS V14.01,2013-06-19 12:56:00,
2013-06-19 14:01:00,78.8,56.9,29.85,WNW,292,3.1,4.9,47,0.00,,FEW034,0.00,VWS V14.01,2013-06-19 13:01:00,
2013-06-19 14:06:00,78.8,57.5,29.85,ENE,68,0.9,2.7,48,0.00,,FEW034,0.00,VWS V14.01,2013-06-19 13:06:00,
2013-06-19 14:11:00,79.0,57.6,29.85,NW,315,3.8,5.6,48,0.00,,FEW034,0.00,VWS V14.01,2013-06-19 13:11:00,
2013-06-19 14:16:00,79.3,57.4,29.85,NW,315,2.5,3.8,47,0.00,,FEW034,0.00,VWS V14.01,2013-06-19 13:16:00,
2013-06-19 14:21:00,79.7,58.3,29.85,North,0,2.9,2.9,48,0.00,,FEW034,0.00,VWS V14.01,2013-06-19 13:21:00,
2013-06-19 14:26:00,80.1,58.6,29.85,ENE,68,2.5,3.1,48,0.00,,FEW034,0.00,VWS V14.01,2013-06-19 13:26:00,
2013-06-19 14:31:00,80.1,58.0,29.85,WNW,292,6.3,7.8,47,0.00,,FEW034,0.00,VWS V14.01,2013-06-19 13:31:00,
2013-06-19 14:36:00,80.4,58.4,29.85,NNW,338,7.4,7.4,47,0.00,,FEW034,0.00,VWS V14.01,2013-06-19 13:36:00,
2013-06-19 14:41:00,80.2,57.6,29.85,NNW,338,3.1,4.3,46,0.00,,FEW034,0.00,VWS V14.01,2013-06-19 13:41:00,
2013-06-19 14:46:00,80.2,58.2,29.85,SSE,158,1.1,2.5,47,0.00,,FEW034,0.00,VWS V14.01,2013-06-19 13:46:00,
2013-06-19 14:51:00,80.2,57.6,29.85,NNW,338,1.3,1.6,46,0.00,,FEW034,0.00,VWS V14.01,2013-06-19 13:51:00,
2013-06-19 14:56:00,80.1,58.0,29.85,West,270,5.8,7.6,47,0.00,,FEW034,0.00,VWS V14.01,2013-06-19 13:56:00,
2013-06-19 15:01:00,79.9,57.3,29.85,WNW,292,3.4,8.1,46,0.00,,FEW044,0.00,VWS V14.01,2013-06-19 14:01:00,
2013-06-19 15:06:00,79.7,57.7,29.85,West,270,3.4,5.8,47,0.00,,FEW044,0.00,VWS V14.01,2013-06-19 14:06:00,
2013-06-19 15:11:00,79.7,58.3,29.85,WNW,292,2.7,4.9,48,0.00,,FEW044,0.00,VWS V14.01,2013-06-19 14:11:00,
2013-06-19 15:16:00,79.7,57.7,29.85,WNW,292,4.7,4.9,47,0.00,,FEW044,0.00,VWS V14.01,2013-06-19 14:16:00,
2013-06-19 15:21:00,79.5,57.5,29.85,SW,225,6.3,6.3,47,0.00,,FEW044,0.00,VWS V14.01,2013-06-19 14:21:00,
2013-06-19 15:26:00,79.5,57.5,29.85,WNW,292,3.1,4.0,47,0.00,,FEW044,0.00,VWS V14.01,2013-06-19 14:26:00,
2013-06-19 15:31:00,79.3,57.4,29.85,NNE,22,2.9,3.6,47,0.00,,FEW044,0.00,VWS V14.01,2013-06-19 14:31:00,
2013-06-19 15:36:00,79.7,57.1,29.85,NNW,338,4.3,4.3,46,0.00,,FEW044,0.00,VWS V14.01,2013-06-19 14:36:00,
2013-06-19 15:41:00,79.9,56.7,29.82,NNW,338,6.0,7.4,45,0.00,,FEW044,0.00,VWS V14.01,2013-06-19 14:41:00,
2013-06-19 15:46:00,79.9,56.7,29.82,NW,315,3.6,6.0,45,0.00,,FEW044,0.00,VWS V14.01,2013-06-19 14:46:00,
2013-06-19 15:51:00,79.9,56.7,29.82,WNW,292,3.4,4.3,45,0.00,,FEW044,0.00,VWS V14.01,2013-06-19 14:51:00,
2013-06-19 15:56:00,79.7,55.9,29.82,NE,45,6.3,6.3,44,0.00,,FEW044,0.00,VWS V14.01,2013-06-19 14:56:00,
2013-06-19 16:01:00,79.7,55.9,29.82,NNW,338,8.1,9.8,44,0.00,,FEW043,0.00,VWS V14.01,2013-06-19 15:01:00,
2013-06-19 16:06:00,79.7,55.9,29.82,NNW,338,8.1,8.1,44,0.00,,FEW043,0.00,VWS V14.01,2013-06-19 15:06:00,
2013-06-19 16:11:00,79.3,54.9,29.82,NNW,338,8.5,8.5,43,0.00,,FEW043,0.00,VWS V14.01,2013-06-19 15:11:00,
2013-06-19 16:16:00,79.2,55.4,29.82,North,0,2.5,5.6,44,0.00,,FEW043,0.00,VWS V14.01,2013-06-19 15:16:00,
2013-06-19 16:21:00,79.2,55.4,29.82,North,0,2.9,6.0,44,0.00,,FEW043,0.00,VWS V14.01,2013-06-19 15:21:00,
2013-06-19 16:26:00,78.8,54.4,29.82,North,0,3.4,3.4,43,0.00,,FEW043,0.00,VWS V14.01,2013-06-19 15:26:00,
2013-06-19 16:31:00,78.4,54.7,29.82,NNW,338,6.3,6.3,44,0.00,,FEW043,0.00,VWS V14.01,2013-06-19 15:31:00,
2013-06-19 16:36:00,78.3,55.2,29.82,NNW,338,7.4,7.4,45,0.00,,FEW043,0.00,VWS V14.01,2013-06-19 15:36:00,
2013-06-19 16:41:00,77.9,54.3,29.82,NNW,338,6.5,6.5,44,0.00,,FEW043,0.00,VWS V14.01,2013-06-19 15:41:00,
2013-06-19 16:46:00,77.9,54.3,29.82,NW,315,7.4,7.4,44,0.00,,FEW043,0.00,VWS V14.01,2013-06-19 15:46:00,
2013-06-19 16:51:00,77.7,54.1,29.82,WNW,292,6.0,6.0,44,0.00,,FEW043,0.00,VWS V14.01,2013-06-19 15:51:00,
2013-06-19 16:56:00,77.7,54.1,29.82,NNW,338,5.4,5.6,44,0.00,,FEW043,0.00,VWS V14.01,2013-06-19 15:56:00,
2013-06-19 17:01:00,77.7,54.1,29.82,North,0,6.5,7.8,44,0.00,,,0.00,VWS V14.01,2013-06-19 16:01:00,
2013-06-19 17:06:00,77.7,54.1,29.82,NNW,338,10.3,10.3,44,0.00,,,0.00,VWS V14.01,2013-06-19 16:06:00,
2013-06-19 17:11:00,77.7,54.1,29.82,North,0,7.2,7.4,44,0.00,,,0.00,VWS V14.01,2013-06-19 16:11:00,
2013-06-19 17:16:00,78.1,54.4,29.82,NNE,22,6.3,6.3,44,0.00,,,0.00,VWS V14.01,2013-06-19 16:16:00,
2013-06-19 17:21:00,78.1,54.4,29.82,North,0,8.5,8.5,44,0.00,,,0.00,VWS V14.01,2013-06-19 16:21:00,
2013-06-19 17:26:00,78.4,54.1,29.82,NNW,338,4.9,6.3,43,0.00,,,0.00,VWS V14.01,2013-06-19 16:26:00,
2013-06-19 17:31:00,78.6,54.3,29.82,ENE,68,10.7,10.7,43,0.00,,,0.00,VWS V14.01,2013-06-19 16:31:00,
2013-06-19 17:36:00,78.4,54.1,29.82,North,0,8.7,8.7,43,0.00,,,0.00,VWS V14.01,2013-06-19 16:36:00,
2013-06-19 17:41:00,78.3,54.0,29.82,North,0,6.0,6.5,43,0.00,,,0.00,VWS V14.01,2013-06-19 16:41:00,
2013-06-19 17:46:00,78.1,54.4,29.82,ENE,68,4.0,4.0,44,0.00,,,0.00,VWS V14.01,2013-06-19 16:46:00,
2013-06-19 17:51:00,77.7,53.5,29.85,North,0,4.9,4.9,43,0.00,,,0.00,VWS V14.01,2013-06-19 16:51:00,
2013-06-19 17:56:00,77.5,53.3,29.85,NNW,338,7.4,7.6,43,0.00,,,0.00,VWS V14.01,2013-06-19 16:56:00,
2013-06-19 18:01:00,77.4,53.8,29.85,NNW,338,4.9,6.0,44,0.00,,,0.00,VWS V14.01,2013-06-19 17:01:00,
2013-06-19 18:06:00,77.2,53.6,29.85,NNE,22,4.3,5.8,44,0.00,,,0.00,VWS V14.01,2013-06-19 17:06:00,
2013-06-19 18:11:00,77.2,53.6,29.85,NNE,22,4.0,6.5,44,0.00,,,0.00,VWS V14.01,2013-06-19 17:11:00,
2013-06-19 18:16:00,77.0,54.1,29.85,NNW,338,6.5,6.5,45,0.00,,,0.00,VWS V14.01,2013-06-19 17:16:00,
2013-06-19 18:21:00,77.0,54.1,29.85,NW,315,5.4,6.0,45,0.00,,,0.00,VWS V14.01,2013-06-19 17:21:00,
2013-06-19 18:26:00,76.8,54.5,29.85,North,0,2.7,2.7,46,0.00,,,0.00,VWS V14.01,2013-06-19 17:26:00,
2013-06-19 18:31:00,76.6,54.3,29.85,NNW,338,3.4,5.4,46,0.00,,,0.00,VWS V14.01,2013-06-19 17:31:00,
2013-06-19 18:36:00,76.6,54.3,29.85,North,0,2.9,6.3,46,0.00,,,0.00,VWS V14.01,2013-06-19 17:36:00,
2013-06-19 18:41:00,76.5,54.8,29.85,NNE,22,5.4,8.5,47,0.00,,,0.00,VWS V14.01,2013-06-19 17:41:00,
2013-06-19 18:46:00,76.5,54.8,29.85,East,90,4.0,5.6,47,0.00,,,0.00,VWS V14.01,2013-06-19 17:46:00,
2013-06-19 18:51:00,76.3,54.6,29.85,NNE,22,2.9,4.3,47,0.00,,,0.00,VWS V14.01,2013-06-19 17:51:00,
2013-06-19 18:57:00,76.3,54.6,29.85,North,0,3.8,5.4,47,0.00,,,0.00,VWS V14.01,2013-06-19 17:57:00,
2013-06-19 19:02:00,76.3,55.2,29.85,NE,45,3.1,4.0,48,0.00,,,0.00,VWS V14.01,2013-06-19 18:02:00,
2013-06-19 19:07:00,76.3,55.2,29.88,NE,45,4.9,4.9,48,0.00,,,0.00,VWS V14.01,2013-06-19 18:07:00,
2013-06-19 19:12:00,76.3,55.2,29.88,NE,45,5.6,5.6,48,0.00,,,0.00,VWS V14.01,2013-06-19 18:12:00,
2013-06-19 19:17:00,76.1,55.0,29.88,NE,45,2.7,4.7,48,0.00,,,0.00,VWS V14.01,2013-06-19 18:17:00,
2013-06-19 19:22:00,75.9,54.8,29.85,NNE,22,5.8,5.8,48,0.00,,,0.00,VWS V14.01,2013-06-19 18:22:00,
2013-06-19 19:27:00,75.7,54.7,29.85,ENE,68,5.6,5.6,48,0.00,,,0.00,VWS V14.01,2013-06-19 18:27:00,
2013-06-19 19:32:00,75.7,54.7,29.85,North,0,0.9,3.1,48,0.00,,,0.00,VWS V14.01,2013-06-19 18:32:00,
2013-06-19 19:37:00,75.6,54.5,29.88,North,0,5.8,7.6,48,0.00,,,0.00,VWS V14.01,2013-06-19 18:37:00,
2013-06-19 19:42:00,75.6,55.1,29.88,NE,45,7.6,7.8,49,0.00,,,0.00,VWS V14.01,2013-06-19 18:42:00,
2013-06-19 19:47:00,75.4,54.9,29.88,NE,45,4.0,6.5,49,0.00,,,0.00,VWS V14.01,2013-06-19 18:47:00,
2013-06-19 19:52:00,75.2,54.8,29.85,North,0,1.6,6.5,49,0.00,,,0.00,VWS V14.01,2013-06-19 18:52:00,
2013-06-19 19:57:00,75.2,55.3,29.85,NNE,22,3.6,3.6,50,0.00,,,0.00,VWS V14.01,2013-06-19 18:57:00,
2013-06-19 20:02:00,75.0,55.7,29.85,NE,45,4.0,4.0,51,0.00,,FEW047,0.00,VWS V14.01,2013-06-19 19:02:00,
2013-06-19 20:07:00,75.0,55.7,29.85,NNE,22,3.1,4.7,51,0.00,,FEW047,0.00,VWS V14.01,2013-06-19 19:07:00,
2013-06-19 20:12:00,75.0,55.7,29.85,East,90,3.6,3.6,51,0.00,,FEW047,0.00,VWS V14.01,2013-06-19 19:12:00,
2013-06-19 20:17:00,74.7,55.3,29.85,East,90,5.4,6.5,51,0.00,,FEW047,0.00,VWS V14.01,2013-06-19 19:17:00,
2013-06-19 20:22:00,74.7,55.3,29.82,ENE,68,8.1,8.1,51,0.00,,FEW047,0.00,VWS V14.01,2013-06-19 19:22:00,
2013-06-19 20:27:00,74.7,55.3,29.82,NE,45,3.4,5.6,51,0.00,,FEW047,0.00,VWS V14.01,2013-06-19 19:27:00,
2013-06-19 20:32:00,74.5,55.2,29.82,ENE,68,4.9,5.4,51,0.00,,FEW047,0.00,VWS V14.01,2013-06-19 19:32:00,
2013-06-19 20:37:00,74.5,55.2,29.82,ENE,68,6.3,7.6,51,0.00,,FEW047,0.00,VWS V14.01,2013-06-19 19:37:00,
2013-06-19 20:42:00,74.3,55.6,29.82,East,90,6.0,6.0,52,0.00,,FEW047,0.00,VWS V14.01,2013-06-19 19:42:00,
2013-06-19 20:47:00,74.3,55.6,29.82,ESE,112,5.8,5.8,52,0.00,,FEW047,0.00,VWS V14.01,2013-06-19 19:47:00,
2013-06-19 20:52:00,74.1,55.9,29.82,East,90,4.0,4.0,53,0.00,,FEW047,0.00,VWS V14.01,2013-06-19 19:52:00,
2013-06-19 20:57:00,74.1,56.4,29.82,ESE,112,5.8,5.8,54,0.00,,FEW047,0.00,VWS V14.01,2013-06-19 19:57:00,
2013-06-19 21:02:00,73.9,56.8,29.82,East,90,4.0,6.0,55,0.00,,,0.00,VWS V14.01,2013-06-19 20:02:00,
2013-06-19 21:07:00,73.8,57.6,29.82,ENE,68,6.0,8.5,57,0.00,,,0.00,VWS V14.01,2013-06-19 20:07:00,
2013-06-19 21:12:00,73.6,57.9,29.82,East,90,3.6,4.0,58,0.00,,,0.00,VWS V14.01,2013-06-19 20:12:00,
2013-06-19 21:17:00,73.2,58.5,29.82,SE,135,3.4,5.8,60,0.00,,,0.00,VWS V14.01,2013-06-19 20:17:00,
2013-06-19 21:22:00,73.0,58.8,29.82,ENE,68,3.6,5.8,61,0.00,,,0.00,VWS V14.01,2013-06-19 20:22:00,
2013-06-19 21:27:00,72.9,59.5,29.82,ESE,112,6.3,7.6,63,0.00,,,0.00,VWS V14.01,2013-06-19 20:27:00,
2013-06-19 21:32:00,72.7,59.8,29.82,ESE,112,2.7,6.5,64,0.00,,,0.00,VWS V14.01,2013-06-19 20:32:00,
2013-06-19 21:37:00,72.5,59.6,29.85,ENE,68,4.9,8.7,64,0.00,,,0.00,VWS V14.01,2013-06-19 20:37:00,
2013-06-19 21:42:00,72.3,59.5,29.85,East,90,7.8,7.8,64,0.00,,,0.00,VWS V14.01,2013-06-19 20:42:00,
2013-06-19 21:47:00,72.1,58.9,29.85,NE,45,5.6,6.5,63,0.00,,,0.00,VWS V14.01,2013-06-19 20:47:00,
2013-06-19 21:52:00,71.8,58.5,29.82,NE,45,7.4,7.6,63,0.00,,,0.00,VWS V14.01,2013-06-19 20:52:00,
2013-06-19 21:57:00,71.6,58.3,29.82,ENE,68,5.8,8.7,63,0.00,,,0.00,VWS V14.01,2013-06-19 20:57:00,
2013-06-19 22:03:00,71.1,58.3,29.82,SSE,158,2.9,10.5,64,0.00,,,0.00,VWS V14.01,2013-06-19 21:03:00,
2013-06-19 22:08:00,70.5,57.8,29.82,NNE,22,7.8,9.2,64,0.00,,,0.00,VWS V14.01,2013-06-19 21:08:00,
2013-06-19 22:13:00,70.0,57.3,29.82,NNE,22,12.8,14.8,64,0.00,,,0.00,VWS V14.01,2013-06-19 21:13:00,
2013-06-19 22:18:00,69.4,56.8,29.82,East,90,8.7,13.0,64,0.00,,,0.00,VWS V14.01,2013-06-19 21:18:00,
2013-06-19 22:23:00,68.9,56.7,29.85,NE,45,7.4,13.0,65,0.00,,,0.00,VWS V14.01,2013-06-19 21:23:00,
2013-06-19 22:28:00,68.5,56.7,29.85,NE,45,9.6,10.5,66,0.00,,,0.00,VWS V14.01,2013-06-19 21:28:00,
2013-06-19 22:33:00,68.2,57.2,29.85,ESE,112,6.0,6.9,68,0.00,,,0.00,VWS V14.01,2013-06-19 21:33:00,
2013-06-19 22:38:00,67.6,57.9,29.82,East,90,12.1,13.2,71,0.00,,,0.00,VWS V14.01,2013-06-19 21:38:00,
2013-06-19 22:43:00,67.5,58.1,29.82,East,90,5.8,5.8,72,0.00,,,0.00,VWS V14.01,2013-06-19 21:43:00,
2013-06-19 22:48:00,67.3,58.0,29.82,SSE,158,5.6,6.5,72,0.00,,,0.00,VWS V14.01,2013-06-19 21:48:00,
2013-06-19 22:53:00,67.1,58.5,29.82,East,90,7.4,9.8,74,0.00,,,0.00,VWS V14.01,2013-06-19 21:53:00,
2013-06-19 22:58:00,67.1,58.2,29.82,East,90,5.4,5.4,73,0.00,,,0.00,VWS V14.01,2013-06-19 21:58:00,
2013-06-19 23:03:00,66.9,58.0,29.82,East,90,3.6,6.3,73,0.00,,,0.00,VWS V14.01,2013-06-19 22:03:00,
2013-06-19 23:08:00,66.9,58.0,29.85,East,90,4.0,5.8,73,0.00,,,0.00,VWS V14.01,2013-06-19 22:08:00,
2013-06-19 23:13:00,66.9,58.4,29.85,ENE,68,6.0,8.1,74,0.00,,,0.00,VWS V14.01,2013-06-19 22:13:00,
2013-06-19 23:18:00,66.9,58.4,29.85,East,90,7.6,7.6,74,0.00,,,0.00,VWS V14.01,2013-06-19 22:18:00,
2013-06-19 23:23:00,66.6,58.0,29.85,East,90,3.8,6.3,74,0.00,,,0.00,VWS V14.01,2013-06-19 22:23:00,
2013-06-19 23:28:00,66.4,58.2,29.85,East,90,6.3,6.5,75,0.00,,,0.00,VWS V14.01,2013-06-19 22:28:00,
2013-06-19 23:33:00,66.2,58.4,29.85,ENE,68,3.4,8.1,76,0.00,,,0.00,VWS V14.01,2013-06-19 22:33:00,
2013-06-19 23:38:00,66.0,58.2,29.82,East,90,3.8,4.3,76,0.00,,,0.00,VWS V14.01,2013-06-19 22:38:00,
2013-06-19 23:43:00,66.0,58.6,29.82,East,90,7.2,7.2,77,0.00,,,0.00,VWS V14.01,2013-06-19 22:43:00,
2013-06-19 23:48:00,65.8,58.4,29.82,East,90,8.5,8.5,77,0.00,,,0.00,VWS V14.01,2013-06-19 22:48:00,
2013-06-19 23:53:00,65.7,58.6,29.82,ENE,68,3.8,7.4,78,0.00,,,0.00,VWS V14.01,2013-06-19 22:53:00,
2013-06-19 23:58:00,65.5,58.5,29.82,ENE,68,7.4,8.1,78,0.00,,,0.00,VWS V14.01,2013-06-19 22:58:00,